createdAt,value
2022-08-03T00:00:30.032Z,17.84
2022-08-03T00:03:04.082Z,17.78
2022-08-03T00:05:33.046Z,17.79
2022-08-03T00:08:01.170Z,17.79
2022-08-03T00:10:28.871Z,17.75
2022-08-03T00:12:56.262Z,17.71
2022-08-03T00:15:23.813Z,17.65
2022-08-03T00:17:54.096Z,17.63
2022-08-03T00:20:22.167Z,17.58
2022-08-03T00:22:50.462Z,17.47
2022-08-03T00:25:19.093Z,17.40
2022-08-03T00:27:47.751Z,17.39
2022-08-03T00:30:16.841Z,17.35
2022-08-03T00:32:45.526Z,17.35
2022-08-03T00:35:32.580Z,17.28
2022-08-03T00:38:00.674Z,17.29
2022-08-03T00:40:28.181Z,17.26
2022-08-03T00:43:05.618Z,17.30
2022-08-03T00:45:36.995Z,17.36
2022-08-03T00:48:07.145Z,17.34
2022-08-03T00:50:54.695Z,17.35
2022-08-03T00:53:22.156Z,17.35
2022-08-03T00:55:49.530Z,17.24
2022-08-03T00:58:16.953Z,17.16
2022-08-03T01:00:44.351Z,17.12
2022-08-03T01:03:11.746Z,17.07
2022-08-03T01:05:57.850Z,17.06
2022-08-03T01:08:31.425Z,16.97
2022-08-03T01:11:34.684Z,16.96
2022-08-03T01:14:26.389Z,16.96
2022-08-03T01:17:11.667Z,17.00
2022-08-03T01:19:48.664Z,17.05
2022-08-03T01:22:45.183Z,17.09
2022-08-03T01:25:56.092Z,17.17
2022-08-03T01:28:54.415Z,17.23
2022-08-03T01:31:28.626Z,17.26
2022-08-03T01:34:02.304Z,17.33
2022-08-03T01:36:37.342Z,17.37
2022-08-03T01:39:11.040Z,17.40
2022-08-03T01:42:00.542Z,17.39
2022-08-03T01:44:33.506Z,17.38
2022-08-03T01:47:02.807Z,17.39
2022-08-03T01:49:33.398Z,17.39
2022-08-03T01:52:05.385Z,17.40
2022-08-03T01:54:42.955Z,17.42
2022-08-03T01:57:10.565Z,17.43
2022-08-03T01:59:40.066Z,17.42
2022-08-03T02:02:15.941Z,17.39
2022-08-03T02:05:01.185Z,17.31
2022-08-03T02:07:31.766Z,17.33
2022-08-03T02:10:01.911Z,17.34
2022-08-03T02:12:32.107Z,17.32
2022-08-03T02:15:01.152Z,17.32
2022-08-03T02:17:38.606Z,17.29
2022-08-03T02:20:13.288Z,17.28
2022-08-03T02:22:42.830Z,17.30
2022-08-03T02:25:13.061Z,17.30
2022-08-03T02:28:01.395Z,17.35
2022-08-03T02:30:38.720Z,17.37
2022-08-03T02:33:12.465Z,17.37
2022-08-03T02:35:43.082Z,17.36
2022-08-03T02:38:12.451Z,17.34
2022-08-03T02:40:42.362Z,17.35
2022-08-03T02:43:19.901Z,17.35
2022-08-03T02:45:51.056Z,17.33
2022-08-03T02:48:23.231Z,17.33
2022-08-03T02:50:57.963Z,17.32
2022-08-03T02:53:28.614Z,17.29
2022-08-03T02:55:57.852Z,17.25
2022-08-03T02:58:26.032Z,17.23
2022-08-03T03:00:54.877Z,17.20
2022-08-03T03:03:24.043Z,17.18
2022-08-03T03:05:57.490Z,17.17
2022-08-03T03:08:28.917Z,17.16
2022-08-03T03:11:00.033Z,17.15
2022-08-03T03:13:30.867Z,17.15
2022-08-03T03:16:02.263Z,17.14
2022-08-03T03:18:32.101Z,17.16
2022-08-03T03:21:02.430Z,17.17
2022-08-03T03:23:31.787Z,17.17
2022-08-03T03:26:02.450Z,17.24
2022-08-03T03:28:31.391Z,17.31
2022-08-03T03:31:00.412Z,17.37
2022-08-03T03:33:28.596Z,17.38
2022-08-03T03:35:58.361Z,17.39
2022-08-03T03:38:26.684Z,17.42
2022-08-03T03:40:55.224Z,17.42
2022-08-03T03:43:23.954Z,17.46
2022-08-03T03:45:53.308Z,17.51
2022-08-03T03:48:21.169Z,17.55
2022-08-03T03:50:50.366Z,17.59
2022-08-03T03:53:18.398Z,17.65
2022-08-03T03:55:59.562Z,17.69
2022-08-03T03:58:33.319Z,17.71
2022-08-03T04:01:01.580Z,17.74
2022-08-03T04:03:30.380Z,17.75
2022-08-03T04:06:16.418Z,17.84
2022-08-03T04:09:03.652Z,17.91
2022-08-03T04:11:50.383Z,17.94
2022-08-03T04:14:29.022Z,18.00
2022-08-03T04:17:04.071Z,18.08
2022-08-03T04:19:46.271Z,18.12
2022-08-03T04:22:20.053Z,18.19
2022-08-03T04:25:19.737Z,18.22
2022-08-03T04:28:07.982Z,18.32
2022-08-03T04:30:47.085Z,18.39
2022-08-03T04:33:17.305Z,18.47
2022-08-03T04:36:02.284Z,18.51
2022-08-03T04:38:52.370Z,18.60
2022-08-03T04:41:24.880Z,18.68
2022-08-03T04:43:58.395Z,18.74
2022-08-03T04:46:38.441Z,18.80
2022-08-03T04:49:07.447Z,18.84
2022-08-03T04:51:38.393Z,18.89
2022-08-03T04:54:06.919Z,18.95
2022-08-03T04:56:34.384Z,19.03
2022-08-03T04:59:01.862Z,19.09
2022-08-03T05:01:29.256Z,19.19
2022-08-03T05:03:56.654Z,19.25
2022-08-03T05:06:25.113Z,19.29
2022-08-03T05:08:52.827Z,19.32
2022-08-03T05:11:21.371Z,19.35
2022-08-03T05:13:48.621Z,19.41
2022-08-03T05:16:15.835Z,19.45
2022-08-03T05:18:44.633Z,19.52
2022-08-03T05:21:16.489Z,19.65
2022-08-03T05:23:44.331Z,19.67
2022-08-03T05:26:11.882Z,19.70
2022-08-03T05:28:39.657Z,19.68
2022-08-03T05:31:19.543Z,19.77
2022-08-03T05:33:48.442Z,19.83
2022-08-03T05:36:15.898Z,19.87
2022-08-03T05:38:43.253Z,19.89
2022-08-03T05:41:21.247Z,19.89
2022-08-03T05:43:54.187Z,19.91
2022-08-03T05:46:23.315Z,19.97
2022-08-03T05:48:50.900Z,20.00
2022-08-03T05:51:18.290Z,20.14
2022-08-03T05:53:45.665Z,20.14
2022-08-03T05:56:15.685Z,20.20
2022-08-03T05:58:46.299Z,20.27
2022-08-03T06:01:15.670Z,20.26
2022-08-03T06:03:43.540Z,20.27
2022-08-03T06:06:11.648Z,20.32
2022-08-03T06:08:40.691Z,20.43
2022-08-03T06:11:09.303Z,20.57
2022-08-03T06:13:37.358Z,20.71
2022-08-03T06:16:05.617Z,20.74
2022-08-03T06:18:33.291Z,20.78
2022-08-03T06:21:15.601Z,20.80
2022-08-03T06:23:54.829Z,20.87
2022-08-03T06:26:28.161Z,20.94
2022-08-03T06:28:55.900Z,21.06
2022-08-03T06:31:33.158Z,21.13
2022-08-03T06:34:32.575Z,21.21
2022-08-03T06:36:52.899Z,21.29
2022-08-03T06:39:23.615Z,21.37
2022-08-03T06:41:53.144Z,21.47
2022-08-03T06:44:20.567Z,21.52
2022-08-03T06:46:47.967Z,21.54
2022-08-03T06:49:15.653Z,21.60
2022-08-03T06:52:03.797Z,21.54
2022-08-03T06:54:33.205Z,21.48
2022-08-03T06:57:01.454Z,21.52
2022-08-03T07:00:06.136Z,21.62
2022-08-03T07:02:20.738Z,21.70
2022-08-03T07:04:49.417Z,21.80
2022-08-03T07:07:42.368Z,21.85
2022-08-03T07:10:13.903Z,21.82
2022-08-03T07:12:55.786Z,21.83
2022-08-03T07:15:55.858Z,21.89
2022-08-03T07:18:12.805Z,21.99
2022-08-03T07:20:40.476Z,22.08
2022-08-03T07:23:08.001Z,22.16
2022-08-03T07:25:35.452Z,22.22
2022-08-03T07:28:04.276Z,22.30
2022-08-03T07:30:31.640Z,22.35
2022-08-03T07:32:59.463Z,22.44
2022-08-03T07:35:26.868Z,22.56
2022-08-03T07:37:55.052Z,22.68
2022-08-03T07:40:35.760Z,22.80
2022-08-03T07:43:03.460Z,22.94
2022-08-03T07:45:31.610Z,23.10
2022-08-03T07:47:59.147Z,23.16
2022-08-03T07:50:26.894Z,23.23
2022-08-03T07:52:55.630Z,23.32
2022-08-03T07:55:25.790Z,23.47
2022-08-03T07:58:22.029Z,23.65
2022-08-03T08:00:52.523Z,23.74
2022-08-03T08:03:21.599Z,23.73
2022-08-03T08:05:50.282Z,23.78
2022-08-03T08:08:17.808Z,23.84
2022-08-03T08:10:57.876Z,23.86
2022-08-03T08:13:26.435Z,23.93
2022-08-03T08:15:54.001Z,24.02
2022-08-03T08:18:21.546Z,24.15
2022-08-03T08:20:49.207Z,24.12
2022-08-03T08:23:42.200Z,24.16
2022-08-03T08:26:11.664Z,24.19
2022-08-03T08:28:39.262Z,24.26
2022-08-03T08:31:07.396Z,24.36
2022-08-03T08:34:03.165Z,24.41
2022-08-03T08:36:23.717Z,24.39
2022-08-03T08:38:51.083Z,24.41
2022-08-03T08:41:19.023Z,24.40
2022-08-03T08:43:46.567Z,24.47
2022-08-03T08:46:23.286Z,24.59
2022-08-03T08:48:53.853Z,24.64
2022-08-03T08:51:54.684Z,24.73
2022-08-03T08:54:18.074Z,24.84
2022-08-03T08:56:46.189Z,25.01
2022-08-03T08:59:14.718Z,25.03
2022-08-03T09:01:42.297Z,24.98
2022-08-03T09:04:10.129Z,25.05
2022-08-03T09:06:37.523Z,25.11
2022-08-03T09:09:07.277Z,25.12
2022-08-03T09:11:55.696Z,25.11
2022-08-03T09:14:36.906Z,25.19
2022-08-03T09:17:10.182Z,25.27
2022-08-03T09:20:07.126Z,25.27
2022-08-03T09:22:35.897Z,25.17
2022-08-03T09:25:24.374Z,25.08
2022-08-03T09:27:53.386Z,25.15
2022-08-03T09:30:33.579Z,25.29
2022-08-03T09:33:12.139Z,25.43
2022-08-03T09:35:54.191Z,25.34
2022-08-03T09:38:25.647Z,25.32
2022-08-03T09:40:59.002Z,25.35
2022-08-03T09:43:45.450Z,25.38
2022-08-03T09:46:13.419Z,25.47
2022-08-03T09:48:40.923Z,25.47
2022-08-03T09:51:14.258Z,25.52
2022-08-03T09:54:00.130Z,25.73
2022-08-03T09:56:50.025Z,25.88
2022-08-03T09:59:32.406Z,25.93
2022-08-03T10:02:01.427Z,25.92
2022-08-03T10:04:28.965Z,25.93
2022-08-03T10:07:09.107Z,26.04
2022-08-03T10:09:37.856Z,26.08
2022-08-03T10:12:13.830Z,26.01
2022-08-03T10:15:07.943Z,26.00
2022-08-03T10:17:55.978Z,25.99
2022-08-03T10:20:23.855Z,25.95
2022-08-03T10:22:52.088Z,25.90
2022-08-03T10:25:19.856Z,25.87
2022-08-03T10:27:51.172Z,25.86
2022-08-03T10:30:18.810Z,26.05
2022-08-03T10:33:51.441Z,26.12
2022-08-03T10:36:07.163Z,26.16
2022-08-03T10:38:47.503Z,26.11
2022-08-03T10:41:19.561Z,26.20
2022-08-03T10:43:50.461Z,26.28
2022-08-03T10:46:20.951Z,26.40
2022-08-03T10:48:51.279Z,26.52
2022-08-03T10:51:20.482Z,26.51
2022-08-03T10:53:55.494Z,26.43
2022-08-03T10:56:51.106Z,26.49
2022-08-03T11:00:05.476Z,26.50
2022-08-03T11:03:14.019Z,26.68
2022-08-03T11:05:48.619Z,26.87
2022-08-03T11:08:37.031Z,26.91
2022-08-03T11:11:16.685Z,26.84
2022-08-03T11:14:07.766Z,26.74
2022-08-03T11:16:49.511Z,26.75
2022-08-03T11:19:22.091Z,26.95
2022-08-03T11:21:52.174Z,27.04
2022-08-03T11:24:40.528Z,26.97
2022-08-03T11:27:22.681Z,26.99
2022-08-03T11:30:09.854Z,26.87
2022-08-03T11:32:37.216Z,26.82
2022-08-03T11:35:21.189Z,26.86
2022-08-03T11:38:03.578Z,26.90
2022-08-03T11:40:43.891Z,26.85
2022-08-03T11:43:31.746Z,26.82
2022-08-03T11:46:28.176Z,26.94
2022-08-03T11:49:09.833Z,26.94
2022-08-03T11:51:39.818Z,26.83
2022-08-03T11:54:07.895Z,26.78
2022-08-03T11:56:50.497Z,26.71
2022-08-03T11:59:21.685Z,26.80
2022-08-03T12:01:50.587Z,26.89
2022-08-03T12:04:18.268Z,27.09
2022-08-03T12:07:03.073Z,27.21
2022-08-03T12:09:30.479Z,27.38
2022-08-03T12:12:00.182Z,27.24
2022-08-03T12:14:49.816Z,27.16
2022-08-03T12:17:17.862Z,27.17
2022-08-03T12:19:45.593Z,27.19
2022-08-03T12:22:13.282Z,27.12
2022-08-03T12:24:42.934Z,27.04
2022-08-03T12:27:10.301Z,27.10
2022-08-03T12:29:37.799Z,27.09
2022-08-03T12:32:05.351Z,27.23
2022-08-03T12:34:47.881Z,27.23
2022-08-03T12:37:22.670Z,27.12
2022-08-03T12:40:05.344Z,27.20
2022-08-03T12:42:39.554Z,27.38
2022-08-03T12:45:20.153Z,27.30
2022-08-03T12:47:54.178Z,27.18
2022-08-03T12:50:40.856Z,27.09
2022-08-03T12:53:09.813Z,26.96
2022-08-03T12:55:56.486Z,26.89
2022-08-03T12:58:35.302Z,26.92
2022-08-03T13:01:09.975Z,27.00
2022-08-03T13:03:49.979Z,27.12
2022-08-03T13:06:25.559Z,26.93
2022-08-03T13:09:07.799Z,26.48
2022-08-03T13:11:57.694Z,26.08
2022-08-03T13:14:23.618Z,25.76
2022-08-03T13:16:51.554Z,25.60
2022-08-03T13:19:18.859Z,25.52
2022-08-03T13:21:53.383Z,25.50
2022-08-03T13:24:32.754Z,25.51
2022-08-03T13:27:00.635Z,25.54
2022-08-03T13:29:48.152Z,25.63
2022-08-03T13:32:15.690Z,25.73
2022-08-03T13:34:43.191Z,25.82
2022-08-03T13:37:11.853Z,25.99
2022-08-03T13:39:58.323Z,26.14
2022-08-03T13:42:32.638Z,26.29
2022-08-03T13:45:01.232Z,26.47
2022-08-03T13:47:28.878Z,26.49
2022-08-03T13:50:00.895Z,26.47
2022-08-03T13:52:33.135Z,26.49
2022-08-03T13:55:02.847Z,26.41
2022-08-03T13:58:03.676Z,26.38
2022-08-03T14:00:27.480Z,26.37
2022-08-03T14:03:12.875Z,26.29
2022-08-03T14:05:43.617Z,26.32
2022-08-03T14:08:12.432Z,26.39
2022-08-03T14:10:43.472Z,26.39
2022-08-03T14:13:17.927Z,26.57
2022-08-03T14:15:50.183Z,26.65
2022-08-03T14:18:28.971Z,26.74
2022-08-03T14:21:06.720Z,26.86
2022-08-03T14:23:37.403Z,26.96
2022-08-03T14:26:08.999Z,26.86
2022-08-03T14:28:36.336Z,26.80
2022-08-03T14:31:04.638Z,26.86
2022-08-03T14:33:36.089Z,26.84
2022-08-03T14:36:04.679Z,26.77
2022-08-03T14:38:32.480Z,26.78
2022-08-03T14:40:59.901Z,26.84
2022-08-03T14:43:33.960Z,26.80
2022-08-03T14:46:01.801Z,26.68
2022-08-03T14:50:29.597Z,26.74
2022-08-03T14:51:17.321Z,26.76
2022-08-03T14:53:46.154Z,26.80
2022-08-03T14:56:13.631Z,26.85
2022-08-03T14:58:41.285Z,26.85
2022-08-03T15:02:02.195Z,26.84
2022-08-03T15:03:56.133Z,26.86
2022-08-03T15:06:24.117Z,26.81
2022-08-03T15:09:21.422Z,26.81
2022-08-03T15:11:39.275Z,26.88
2022-08-03T15:14:09.376Z,26.85
2022-08-03T15:16:38.370Z,26.78
2022-08-03T15:20:00.341Z,26.77
2022-08-03T15:21:54.050Z,26.68
2022-08-03T15:24:21.516Z,26.64
2022-08-03T15:26:49.114Z,26.60
2022-08-03T15:30:09.459Z,26.56
2022-08-03T15:32:09.010Z,26.62
2022-08-03T15:34:37.483Z,26.69
2022-08-03T15:37:16.481Z,26.95
2022-08-03T15:40:00.151Z,27.02
2022-08-03T15:42:30.095Z,26.98
2022-08-03T15:44:57.994Z,26.93
2022-08-03T15:47:26.234Z,26.86
2022-08-03T15:49:53.886Z,26.68
2022-08-03T15:52:21.704Z,26.44
2022-08-03T15:54:49.477Z,26.33
2022-08-03T15:57:17.109Z,26.31
2022-08-03T15:59:45.801Z,26.25
2022-08-03T16:02:15.105Z,26.22
2022-08-03T16:04:43.078Z,26.19
2022-08-03T16:07:12.854Z,26.18
2022-08-03T16:09:43.249Z,26.20
2022-08-03T16:12:16.333Z,26.25
2022-08-03T16:14:52.460Z,26.29
2022-08-03T16:17:23.231Z,26.30
2022-08-03T16:19:54.114Z,26.49
2022-08-03T16:22:24.747Z,26.96
2022-08-03T16:24:54.270Z,27.24
2022-08-03T16:27:37.144Z,27.29
2022-08-03T16:30:16.155Z,26.94
2022-08-03T16:32:45.502Z,26.73
2022-08-03T16:35:19.468Z,26.76
2022-08-03T16:37:50.623Z,26.71
2022-08-03T16:40:25.251Z,26.56
2022-08-03T16:42:52.855Z,26.39
2022-08-03T16:45:20.284Z,26.21
2022-08-03T16:47:47.985Z,26.11
2022-08-03T16:50:29.792Z,26.01
2022-08-03T16:53:00.866Z,25.92
2022-08-03T16:55:48.855Z,25.79
2022-08-03T16:58:24.292Z,25.71
2022-08-03T17:01:20.819Z,25.64
2022-08-03T17:04:04.574Z,25.56
2022-08-03T17:06:45.078Z,25.39
2022-08-03T17:09:20.553Z,25.37
2022-08-03T17:11:52.362Z,25.34
2022-08-03T17:14:28.350Z,25.25
2022-08-03T17:17:02.668Z,25.17
2022-08-03T17:19:39.033Z,25.14
2022-08-03T17:22:21.263Z,25.10
2022-08-03T17:24:53.265Z,25.05
2022-08-03T17:28:48.571Z,25.02
2022-08-03T17:30:20.181Z,24.98
2022-08-03T17:32:56.687Z,24.92
2022-08-03T17:35:34.344Z,24.87
2022-08-03T17:38:09.010Z,24.84
2022-08-03T17:40:48.208Z,24.75
2022-08-03T17:44:14.011Z,24.67
2022-08-03T17:46:20.946Z,24.60
2022-08-03T17:48:51.611Z,24.54
2022-08-03T17:52:17.377Z,24.48
2022-08-03T17:58:02.274Z,24.32
2022-08-03T18:00:52.644Z,24.26
2022-08-03T18:03:57.890Z,24.20
2022-08-03T18:06:37.723Z,24.10
2022-08-03T18:12:29.422Z,23.98
2022-08-03T18:15:08.325Z,23.92
2022-08-03T18:18:01.749Z,23.88
2022-08-03T18:20:41.643Z,23.84
2022-08-03T18:23:24.692Z,23.79
2022-08-03T18:25:58.217Z,23.74
2022-08-03T18:28:29.026Z,23.72
2022-08-03T18:31:00.015Z,23.67
2022-08-03T18:34:18.820Z,23.64
2022-08-03T18:36:22.137Z,23.61
2022-08-03T18:39:04.835Z,23.59
2022-08-03T18:41:34.983Z,23.56
2022-08-03T18:44:09.342Z,23.51
2022-08-03T18:47:23.705Z,23.47
2022-08-03T18:49:53.568Z,23.43
2022-08-03T18:52:45.859Z,23.38
2022-08-03T18:55:37.206Z,23.32
2022-08-03T18:58:15.699Z,23.27
2022-08-03T19:01:03.433Z,23.22
2022-08-03T19:03:43.013Z,23.16
2022-08-03T19:06:25.386Z,23.13
2022-08-03T19:09:12.844Z,23.09
2022-08-03T19:12:12.396Z,23.04
2022-08-03T19:14:59.956Z,22.99
2022-08-03T19:17:35.829Z,22.97
2022-08-03T19:20:10.120Z,22.93
2022-08-03T19:22:39.791Z,22.91
2022-08-03T19:25:18.457Z,22.88
2022-08-03T19:27:50.712Z,22.86
2022-08-03T19:30:53.375Z,22.83
2022-08-03T19:33:26.379Z,22.79
2022-08-03T19:36:00.469Z,22.78
2022-08-03T19:38:29.796Z,22.77
2022-08-03T19:41:03.741Z,22.75
2022-08-03T19:43:53.633Z,22.73
2022-08-03T19:46:30.533Z,22.71
2022-08-03T19:49:15.075Z,22.72
2022-08-03T19:52:00.549Z,22.70
2022-08-03T19:54:45.778Z,22.69
2022-08-03T19:57:26.918Z,22.68
2022-08-03T19:59:56.982Z,22.65
2022-08-03T20:02:29.830Z,22.64
2022-08-03T20:05:00.048Z,22.63
2022-08-03T20:07:34.862Z,22.63
2022-08-03T20:10:07.680Z,22.61
2022-08-03T20:12:39.588Z,22.56
2022-08-03T20:15:08.781Z,22.53
2022-08-03T20:17:56.040Z,22.51
2022-08-03T20:20:37.259Z,22.50
2022-08-03T20:23:15.500Z,22.47
2022-08-03T20:25:58.307Z,22.43
2022-08-03T20:28:52.928Z,22.41
2022-08-03T20:31:25.170Z,22.36
2022-08-03T20:34:04.980Z,22.33
2022-08-03T20:36:32.809Z,22.32
2022-08-03T20:39:00.363Z,22.30
2022-08-03T20:41:28.278Z,22.25
2022-08-03T20:44:00.463Z,22.21
2022-08-03T20:46:32.162Z,22.18
2022-08-03T20:49:04.886Z,22.15
2022-08-03T20:51:49.585Z,22.13
2022-08-03T20:54:30.533Z,22.09
2022-08-03T20:57:03.894Z,22.07
2022-08-03T20:59:50.241Z,22.07
2022-08-03T21:02:30.157Z,22.05
2022-08-03T21:05:03.596Z,22.03
2022-08-03T21:08:06.189Z,22.00
2022-08-03T21:10:42.096Z,21.98
2022-08-03T21:12:55.767Z,24.38
2022-08-03T21:12:57.104Z,24.05
2022-08-03T21:13:29.717Z,21.96
2022-08-03T21:16:06.493Z,21.98
2022-08-03T21:18:50.290Z,21.98
2022-08-03T21:21:20.971Z,21.94
2022-08-03T21:23:54.765Z,21.92
2022-08-03T21:26:26.137Z,21.87
2022-08-03T21:28:56.104Z,21.84
2022-08-03T21:31:26.565Z,21.80
2022-08-03T21:34:02.874Z,21.77
2022-08-03T21:36:34.472Z,21.73
2022-08-03T21:39:05.763Z,21.71
2022-08-03T21:41:33.713Z,21.67
2022-08-03T21:44:01.941Z,21.60
2022-08-03T21:46:39.900Z,21.56
2022-08-03T21:50:06.135Z,21.55
2022-08-03T21:52:02.527Z,21.55
2022-08-03T21:54:40.679Z,21.57
2022-08-03T21:57:31.272Z,21.56
2022-08-03T22:00:14.929Z,21.55
2022-08-03T22:02:54.543Z,21.51
2022-08-03T22:05:28.888Z,21.48
2022-08-03T22:08:13.118Z,21.45
2022-08-03T22:10:44.216Z,21.44
2022-08-03T22:13:14.500Z,21.39
2022-08-03T22:15:42.013Z,21.35
2022-08-03T22:18:09.483Z,21.29
2022-08-03T22:20:37.164Z,21.28
2022-08-03T22:23:06.880Z,21.26
2022-08-03T22:25:38.990Z,21.26
2022-08-03T22:28:11.701Z,21.27
2022-08-03T22:30:41.256Z,21.28
2022-08-03T22:33:11.976Z,21.28
2022-08-03T22:35:47.894Z,21.23
2022-08-03T22:38:18.107Z,21.17
2022-08-03T22:40:49.320Z,21.13
2022-08-03T22:43:16.679Z,21.09
2022-08-03T22:46:09.831Z,21.03
2022-08-03T22:48:36.635Z,20.99
2022-08-03T22:51:10.100Z,20.94
2022-08-03T22:53:39.059Z,20.93
2022-08-03T22:56:06.893Z,20.90
2022-08-03T22:58:34.193Z,20.85
2022-08-03T23:01:09.278Z,20.79
2022-08-03T23:03:58.869Z,20.75
2022-08-03T23:06:42.070Z,20.67
2022-08-03T23:09:12.020Z,20.63
2022-08-03T23:11:45.999Z,20.55
2022-08-03T23:14:16.705Z,20.52
2022-08-03T23:16:45.949Z,20.47
2022-08-03T23:19:16.530Z,20.40
2022-08-03T23:21:52.852Z,20.29
2022-08-03T23:24:29.690Z,20.22
2022-08-03T23:26:58.621Z,20.13
2022-08-03T23:29:28.902Z,20.05
2022-08-03T23:31:57.219Z,20.00
2022-08-03T23:34:44.291Z,19.89
2022-08-03T23:37:15.030Z,19.83
2022-08-03T23:39:48.551Z,19.83
2022-08-03T23:42:20.110Z,19.78
2022-08-03T23:44:54.018Z,19.74
2022-08-03T23:47:21.884Z,19.67
2022-08-03T23:49:49.586Z,19.61
2022-08-03T23:52:38.957Z,19.54
2022-08-03T23:55:37.367Z,19.47
2022-08-03T23:58:49.239Z,19.36
